Time,TemperatureF,DewpointF,PressureIn,WindDirection,WindDirectionDegrees,WindSpeedMPH,WindSpeedGustMPH,Humidity,HourlyPrecipIn,Conditions,Clouds,dailyrainin,SoftwareType,DateUTC
2013-04-08 00:03:00,41.9,39.8,29.77,ESE,110,0.0,0.0,92,0.03,,,0.00,VWS V14.01,2013-04-08 05:03:00,
2013-04-08 00:08:00,41.9,39.8,29.77,ESE,110,0.0,0.0,92,0.04,,,0.01,VWS V14.01,2013-04-08 05:08:00,
2013-04-08 00:13:00,41.9,39.8,29.76,ESE,110,0.0,0.0,92,0.05,,,0.02,VWS V14.01,2013-04-08 05:13:00,
2013-04-08 00:18:00,41.8,39.7,29.76,ESE,110,0.0,2.0,92,0.05,,,0.02,VWS V14.01,2013-04-08 05:18:00,
2013-04-08 00:23:00,41.8,39.7,29.76,ESE,110,0.0,2.0,92,0.05,,,0.02,VWS V14.01,2013-04-08 05:23:00,
2013-04-08 00:28:00,41.6,39.5,29.76,ESE,110,0.0,2.0,92,0.05,,,0.02,VWS V14.01,2013-04-08 05:28:00,
2013-04-08 00:33:00,41.6,39.5,29.76,ESE,110,0.0,0.0,92,0.04,,,0.02,VWS V14.01,2013-04-08 05:33:00,
2013-04-08 00:38:00,41.5,39.3,29.76,ESE,110,0.0,0.0,92,0.04,,,0.02,VWS V14.01,2013-04-08 05:38:00,
2013-04-08 00:43:00,41.5,39.6,29.77,ESE,110,0.0,0.0,93,0.06,,,0.04,VWS V14.01,2013-04-08 05:43:00,
2013-04-08 00:49:00,41.6,39.7,29.76,ESE,110,0.0,0.0,93,0.07,,,0.05,VWS V14.01,2013-04-08 05:49:00,
2013-04-08 00:54:00,41.5,39.6,29.76,ESE,110,0.0,0.0,93,0.07,,,0.05,VWS V14.01,2013-04-08 05:54:00,
2013-04-08 00:59:00,41.5,39.6,29.76,ESE,110,0.0,0.0,93,0.08,,,0.06,VWS V14.01,2013-04-08 05:59:00,
2013-04-08 01:04:00,41.5,39.6,29.76,ESE,110,0.0,1.0,93,0.07,,,0.07,VWS V14.01,2013-04-08 06:04:00,
2013-04-08 01:09:00,41.6,39.7,29.76,ESE,110,0.0,1.0,93,0.08,,,0.08,VWS V14.01,2013-04-08 06:09:00,
2013-04-08 01:14:00,41.9,40.0,29.76,ESE,110,0.0,1.0,93,0.10,,,0.10,VWS V14.01,2013-04-08 06:14:00,
2013-04-08 01:20:00,42.1,40.2,29.76,ESE,110,0.0,1.0,93,0.12,,,0.12,VWS V14.01,2013-04-08 06:20:00,
2013-04-08 01:25:00,42.1,40.0,29.75,ESE,110,0.0,1.0,92,0.13,,,0.13,VWS V14.01,2013-04-08 06:25:00,
2013-04-08 01:30:00,41.9,39.8,29.75,ESE,110,0.0,1.0,92,0.14,,,0.14,VWS V14.01,2013-04-08 06:30:00,
2013-04-08 01:35:00,41.7,39.5,29.75,ESE,110,0.0,0.0,92,0.14,,,0.16,VWS V14.01,2013-04-08 06:35:00,
2013-04-08 01:40:00,41.6,39.7,29.75,ESE,110,0.0,0.0,93,0.15,,,0.17,VWS V14.01,2013-04-08 06:40:00,
2013-04-08 01:45:00,41.5,39.6,29.75,ESE,110,0.0,0.0,93,0.17,,,0.19,VWS V14.01,2013-04-08 06:45:00,
2013-04-08 01:50:00,41.5,39.6,29.74,ESE,110,0.0,0.0,93,0.20,,,0.22,VWS V14.01,2013-04-08 06:50:00,
2013-04-08 01:55:00,41.4,39.8,29.75,ESE,110,0.0,0.0,94,0.21,,,0.23,VWS V14.01,2013-04-08 06:55:00,
2013-04-08 02:00:00,41.3,39.7,29.74,ESE,110,0.0,2.0,94,0.23,,,0.25,VWS V14.01,2013-04-08 07:00:00,
2013-04-08 02:06:00,41.3,39.7,29.74,ESE,110,0.0,0.0,94,0.21,,,0.27,VWS V14.01,2013-04-08 07:06:00,
2013-04-08 02:11:00,41.2,39.6,29.74,ESE,110,0.0,3.0,94,0.24,,,0.30,VWS V14.01,2013-04-08 07:11:00,
2013-04-08 02:16:00,41.2,39.6,29.73,ESE,110,0.0,3.0,94,0.27,,,0.33,VWS V14.01,2013-04-08 07:16:00,
2013-04-08 02:21:00,41.3,40.0,29.74,ESE,110,0.0,3.0,95,0.32,,,0.38,VWS V14.01,2013-04-08 07:21:00,
2013-04-08 02:27:00,41.4,40.1,29.73,ESE,110,0.0,3.0,95,0.36,,,0.42,VWS V14.01,2013-04-08 07:27:00,
2013-04-08 02:32:00,41.5,39.9,29.73,ESE,110,0.0,0.0,94,0.31,,,0.46,VWS V14.01,2013-04-08 07:32:00,
2013-04-08 02:37:00,41.6,40.3,29.74,ESE,110,0.0,0.0,95,0.32,,,0.47,VWS V14.01,2013-04-08 07:37:00,
2013-04-08 02:42:00,41.7,40.1,29.73,ESE,110,0.0,0.0,94,0.34,,,0.49,VWS V14.01,2013-04-08 07:42:00,
2013-04-08 02:47:00,41.5,39.9,29.73,ESE,110,0.0,2.0,94,0.36,,,0.51,VWS V14.01,2013-04-08 07:47:00,
2013-04-08 02:52:00,41.4,39.8,29.73,ESE,110,0.0,2.0,94,0.37,,,0.52,VWS V14.01,2013-04-08 07:52:00,
2013-04-08 02:57:00,41.4,40.1,29.72,ESE,110,0.0,2.0,95,0.39,,,0.54,VWS V14.01,2013-04-08 07:57:00,
2013-04-08 03:02:00,41.3,39.7,29.72,ESE,110,0.0,0.0,94,0.30,,,0.55,VWS V14.01,2013-04-08 08:02:00,
2013-04-08 03:07:00,41.3,40.0,29.72,ESE,110,0.0,0.0,95,0.30,,,0.55,VWS V14.01,2013-04-08 08:07:00,
2013-04-08 03:12:00,41.4,40.1,29.72,ESE,110,0.0,0.0,95,0.31,,,0.56,VWS V14.01,2013-04-08 08:12:00,
2013-04-08 03:17:00,41.4,40.1,29.72,ESE,110,0.0,0.0,95,0.31,,,0.56,VWS V14.01,2013-04-08 08:17:00,
2013-04-08 03:22:00,41.4,40.1,29.72,ESE,110,0.0,0.0,95,0.32,,,0.57,VWS V14.01,2013-04-08 08:22:00,
2013-04-08 03:27:00,41.4,40.1,29.71,ESE,110,0.0,0.0,95,0.33,,,0.58,VWS V14.01,2013-04-08 08:27:00,
2013-04-08 03:32:00,41.4,40.1,29.72,ESE,110,0.0,0.0,95,0.12,,,0.58,VWS V14.01,2013-04-08 08:32:00,
2013-04-08 03:37:00,41.4,40.1,29.72,ESE,110,0.0,3.0,95,0.12,,,0.58,VWS V14.01,2013-04-08 08:37:00,
2013-04-08 03:42:00,41.4,40.1,29.72,ESE,110,0.0,3.0,95,0.12,,,0.58,VWS V14.01,2013-04-08 08:42:00,
2013-04-08 03:47:00,41.5,40.2,29.72,ESE,110,0.0,3.0,95,0.12,,,0.58,VWS V14.01,2013-04-08 08:47:00,
2013-04-08 03:53:00,41.5,40.2,29.71,ESE,110,0.0,3.0,95,0.12,,,0.58,VWS V14.01,2013-04-08 08:53:00,
2013-04-08 03:58:00,41.5,40.2,29.72,ESE,110,0.0,3.0,95,0.12,,,0.58,VWS V14.01,2013-04-08 08:58:00,
2013-04-08 04:03:00,41.6,40.3,29.71,ESE,110,0.0,0.0,95,0.05,,,0.59,VWS V14.01,2013-04-08 09:03:00,
2013-04-08 04:08:00,41.7,40.4,29.71,ESE,110,0.0,0.0,95,0.05,,,0.59,VWS V14.01,2013-04-08 09:08:00,
2013-04-08 04:13:00,41.7,40.4,29.71,ESE,110,3.0,3.0,95,0.05,,,0.59,VWS V14.01,2013-04-08 09:13:00,
2013-04-08 04:18:00,41.8,40.5,29.71,ESE,116,0.0,5.0,95,0.05,,,0.59,VWS V14.01,2013-04-08 09:18:00,
2013-04-08 04:23:00,41.7,40.4,29.70,East,83,0.0,5.0,95,0.05,,,0.59,VWS V14.01,2013-04-08 09:23:00,
2013-04-08 04:29:00,41.7,40.4,29.70,East,83,0.0,5.0,95,0.05,,,0.59,VWS V14.01,2013-04-08 09:29:00,
2013-04-08 04:34:00,41.6,40.3,29.69,East,80,0.0,1.0,95,0.01,,,0.59,VWS V14.01,2013-04-08 09:34:00,
2013-04-08 04:39:00,41.7,40.4,29.69,NE,56,0.0,1.0,95,0.01,,,0.59,VWS V14.01,2013-04-08 09:39:00,
2013-04-08 04:44:00,41.7,40.4,29.69,East,87,0.0,1.0,95,0.02,,,0.60,VWS V14.01,2013-04-08 09:44:00,
2013-04-08 04:49:00,41.7,40.4,29.69,East,87,0.0,1.0,95,0.02,,,0.60,VWS V14.01,2013-04-08 09:49:00,
2013-04-08 04:55:00,41.6,40.3,29.69,East,87,0.0,1.0,95,0.02,,,0.60,VWS V14.01,2013-04-08 09:55:00,
2013-04-08 05:00:00,41.6,40.3,29.69,East,87,0.0,1.0,95,0.02,,,0.60,VWS V14.01,2013-04-08 10:00:00,
2013-04-08 05:05:00,41.7,40.4,29.69,East,87,0.0,0.0,95,0.01,,,0.60,VWS V14.01,2013-04-08 10:05:00,
2013-04-08 05:10:00,41.6,40.3,29.69,East,87,0.0,0.0,95,0.01,,,0.60,VWS V14.01,2013-04-08 10:10:00,
2013-04-08 05:15:00,41.7,40.4,29.69,East,87,0.0,0.0,95,0.01,,,0.60,VWS V14.01,2013-04-08 10:15:00,
2013-04-08 05:20:00,41.7,40.4,29.68,East,87,0.0,0.0,95,0.01,,,0.60,VWS V14.01,2013-04-08 10:20:00,
2013-04-08 05:25:00,41.7,40.4,29.68,East,87,0.0,0.0,95,0.01,,,0.60,VWS V14.01,2013-04-08 10:25:00,
2013-04-08 05:30:00,41.7,40.4,29.68,East,87,0.0,0.0,95,0.01,,,0.60,VWS V14.01,2013-04-08 10:30:00,
2013-04-08 05:35:00,41.6,40.3,29.68,East,87,0.0,0.0,95,0.01,,,0.60,VWS V14.01,2013-04-08 10:35:00,
2013-04-08 05:40:00,41.7,40.4,29.68,East,87,0.0,0.0,95,0.01,,,0.60,VWS V14.01,2013-04-08 10:40:00,
2013-04-08 05:46:00,41.7,40.4,29.68,East,87,0.0,0.0,95,0.01,,,0.60,VWS V14.01,2013-04-08 10:46:00,
2013-04-08 05:51:00,41.6,40.3,29.67,East,87,0.0,0.0,95,0.01,,,0.60,VWS V14.01,2013-04-08 10:51:00,
2013-04-08 05:57:00,41.6,40.3,29.68,East,87,0.0,0.0,95,0.01,,,0.60,VWS V14.01,2013-04-08 10:57:00,
2013-04-08 06:02:00,41.5,40.2,29.68,East,87,0.0,0.0,95,0.00,,,0.60,VWS V14.01,2013-04-08 11:02:00,
2013-04-08 06:07:00,41.5,40.2,29.68,East,87,0.0,0.0,95,0.00,,,0.60,VWS V14.01,2013-04-08 11:07:00,
2013-04-08 06:12:00,41.4,40.1,29.68,East,87,0.0,0.0,95,0.00,,,0.60,VWS V14.01,2013-04-08 11:12:00,
2013-04-08 06:17:00,41.5,40.2,29.68,East,87,0.0,0.0,95,0.00,,,0.60,VWS V14.01,2013-04-08 11:17:00,
2013-04-08 06:22:00,41.5,40.2,29.68,East,87,0.0,0.0,95,0.00,,,0.60,VWS V14.01,2013-04-08 11:22:00,
2013-04-08 06:28:00,41.5,40.2,29.68,East,87,0.0,0.0,95,0.00,,,0.60,VWS V14.01,2013-04-08 11:28:00,
2013-04-08 06:33:00,41.5,40.2,29.68,East,87,0.0,0.0,95,0.00,,,0.60,VWS V14.01,2013-04-08 11:33:00,
2013-04-08 06:38:00,41.5,40.2,29.69,East,87,0.0,0.0,95,0.00,,,0.60,VWS V14.01,2013-04-08 11:38:00,
2013-04-08 06:43:00,41.5,40.2,29.69,East,87,0.0,0.0,95,0.00,,,0.60,VWS V14.01,2013-04-08 11:43:00,
2013-04-08 06:48:00,41.6,40.3,29.69,East,87,0.0,0.0,95,0.00,,,0.60,VWS V14.01,2013-04-08 11:48:00,
2013-04-08 06:53:00,41.6,40.3,29.70,East,87,0.0,0.0,95,0.00,,,0.60,VWS V14.01,2013-04-08 11:53:00,
2013-04-08 06:58:00,41.5,40.2,29.69,East,87,0.0,0.0,95,0.00,,,0.60,VWS V14.01,2013-04-08 11:58:00,
2013-04-08 07:03:00,41.5,40.2,29.69,East,87,0.0,0.0,95,0.00,,,0.60,VWS V14.01,2013-04-08 12:03:00,
2013-04-08 07:08:00,41.6,40.3,29.70,East,87,0.0,0.0,95,0.00,,,0.60,VWS V14.01,2013-04-08 12:08:00,
2013-04-08 07:13:00,41.6,40.3,29.70,East,87,0.0,0.0,95,0.00,,,0.60,VWS V14.01,2013-04-08 12:13:00,
2013-04-08 07:19:00,41.6,40.3,29.70,East,87,0.0,0.0,95,0.00,,,0.60,VWS V14.01,2013-04-08 12:19:00,
2013-04-08 07:24:00,41.6,40.3,29.71,East,87,0.0,0.0,95,0.00,,,0.60,VWS V14.01,2013-04-08 12:24:00,
2013-04-08 07:29:00,41.6,40.3,29.71,East,87,0.0,0.0,95,0.00,,,0.60,VWS V14.01,2013-04-08 12:29:00,
2013-04-08 07:34:00,41.6,40.3,29.71,East,87,0.0,0.0,95,0.00,,,0.60,VWS V14.01,2013-04-08 12:34:00,
2013-04-08 07:39:00,41.5,40.2,29.71,East,87,0.0,0.0,95,0.00,,,0.60,VWS V14.01,2013-04-08 12:39:00,
2013-04-08 07:44:00,41.5,40.2,29.72,East,87,0.0,0.0,95,0.00,,,0.60,VWS V14.01,2013-04-08 12:44:00,
2013-04-08 07:50:00,41.5,40.2,29.72,East,87,0.0,0.0,95,0.00,,,0.60,VWS V14.01,2013-04-08 12:50:00,
2013-04-08 07:55:00,41.5,40.2,29.73,East,87,0.0,0.0,95,0.00,,,0.60,VWS V14.01,2013-04-08 12:55:00,
2013-04-08 08:00:00,41.5,40.2,29.73,East,87,0.0,0.0,95,0.00,,,0.60,VWS V14.01,2013-04-08 13:00:00,
2013-04-08 08:05:00,41.6,40.3,29.73,East,87,0.0,0.0,95,0.00,,,0.60,VWS V14.01,2013-04-08 13:05:00,
2013-04-08 08:10:00,41.6,40.0,29.73,East,87,0.0,0.0,94,0.00,,,0.60,VWS V14.01,2013-04-08 13:10:00,
2013-04-08 08:15:00,41.6,40.0,29.73,East,87,0.0,0.0,94,0.00,,,0.60,VWS V14.01,2013-04-08 13:15:00,
2013-04-08 08:20:00,41.5,39.9,29.73,East,87,0.0,0.0,94,0.00,,,0.60,VWS V14.01,2013-04-08 13:20:00,
2013-04-08 08:25:00,41.4,39.8,29.73,East,87,0.0,0.0,94,0.00,,,0.60,VWS V14.01,2013-04-08 13:25:00,
2013-04-08 08:31:00,41.4,39.8,29.74,East,87,0.0,0.0,94,0.00,,,0.60,VWS V14.01,2013-04-08 13:31:00,
2013-04-08 08:36:00,41.5,39.9,29.74,East,87,0.0,0.0,94,0.00,,,0.60,VWS V14.01,2013-04-08 13:36:00,
2013-04-08 08:41:00,41.6,40.0,29.74,East,87,0.0,0.0,94,0.00,,,0.60,VWS V14.01,2013-04-08 13:41:00,
2013-04-08 08:46:00,41.7,40.1,29.74,East,87,0.0,0.0,94,0.00,,,0.60,VWS V14.01,2013-04-08 13:46:00,
2013-04-08 08:51:00,41.7,40.1,29.73,East,87,0.0,0.0,94,0.00,,,0.60,VWS V14.01,2013-04-08 13:51:00,
2013-04-08 08:56:00,41.8,40.2,29.73,East,87,2.0,2.0,94,0.00,,,0.60,VWS V14.01,2013-04-08 13:56:00,
2013-04-08 09:02:00,41.9,40.3,29.73,East,87,0.0,0.0,94,0.00,,,0.60,VWS V14.01,2013-04-08 14:02:00,
2013-04-08 09:07:00,41.9,40.3,29.74,East,87,0.0,2.0,94,0.00,,,0.60,VWS V14.01,2013-04-08 14:07:00,
2013-04-08 09:12:00,41.9,40.0,29.74,East,87,0.0,2.0,93,0.00,,,0.60,VWS V14.01,2013-04-08 14:12:00,
2013-04-08 09:17:00,41.9,40.0,29.74,East,87,0.0,2.0,93,0.00,,,0.60,VWS V14.01,2013-04-08 14:17:00,
2013-04-08 09:22:00,42.0,40.4,29.74,East,87,0.0,2.0,94,0.00,,,0.60,VWS V14.01,2013-04-08 14:22:00,
2013-04-08 09:27:00,42.0,40.1,29.74,East,87,0.0,2.0,93,0.00,,,0.60,VWS V14.01,2013-04-08 14:27:00,
2013-04-08 09:32:00,41.9,40.0,29.74,East,87,0.0,0.0,93,0.00,,,0.60,VWS V14.01,2013-04-08 14:32:00,
2013-04-08 09:37:00,41.9,40.0,29.74,East,87,0.0,0.0,93,0.00,,,0.60,VWS V14.01,2013-04-08 14:37:00,
2013-04-08 09:42:00,42.0,40.1,29.74,East,87,0.0,0.0,93,0.00,,,0.60,VWS V14.01,2013-04-08 14:42:00,
2013-04-08 09:47:00,42.0,40.1,29.74,East,87,0.0,0.0,93,0.00,,,0.60,VWS V14.01,2013-04-08 14:47:00,
2013-04-08 09:52:00,42.1,40.2,29.75,East,87,0.0,0.0,93,0.00,,,0.60,VWS V14.01,2013-04-08 14:52:00,
2013-04-08 09:58:00,42.2,40.3,29.74,East,87,0.0,0.0,93,0.00,,,0.60,VWS V14.01,2013-04-08 14:58:00,
2013-04-08 10:03:00,42.3,40.4,29.75,East,87,0.0,0.0,93,0.00,,,0.60,VWS V14.01,2013-04-08 15:03:00,
2013-04-08 10:08:00,42.5,40.6,29.75,East,87,0.0,0.0,93,0.00,,,0.60,VWS V14.01,2013-04-08 15:08:00,
2013-04-08 10:13:00,42.6,40.4,29.76,East,87,0.0,0.0,92,0.00,,,0.60,VWS V14.01,2013-04-08 15:13:00,
2013-04-08 10:18:00,42.7,40.5,29.75,East,87,0.0,0.0,92,0.00,,,0.60,VWS V14.01,2013-04-08 15:18:00,
2013-04-08 10:23:00,42.7,40.5,29.76,East,87,0.0,0.0,92,0.00,,,0.60,VWS V14.01,2013-04-08 15:23:00,
2013-04-08 10:28:00,42.7,40.5,29.76,East,87,0.0,0.0,92,0.00,,,0.60,VWS V14.01,2013-04-08 15:28:00,
2013-04-08 10:33:00,42.8,40.6,29.76,East,87,0.0,0.0,92,0.00,,,0.60,VWS V14.01,2013-04-08 15:33:00,
2013-04-08 10:38:00,42.7,40.5,29.76,East,87,1.0,2.0,92,0.00,,,0.60,VWS V14.01,2013-04-08 15:38:00,
2013-04-08 10:43:00,42.6,40.2,29.76,East,87,0.0,2.0,91,0.00,,,0.60,VWS V14.01,2013-04-08 15:43:00,
2013-04-08 10:48:00,42.9,40.7,29.76,East,87,0.0,2.0,92,0.00,,,0.60,VWS V14.01,2013-04-08 15:48:00,
2013-04-08 10:53:00,43.1,40.7,29.76,East,87,0.0,2.0,91,0.00,,,0.60,VWS V14.01,2013-04-08 15:53:00,
2013-04-08 10:59:00,43.3,40.8,29.76,ENE,60,0.0,2.0,91,0.00,,,0.60,VWS V14.01,2013-04-08 15:59:00,
2013-04-08 11:04:00,43.5,41.3,29.76,ENE,60,0.0,0.0,92,0.00,,,0.60,VWS V14.01,2013-04-08 16:04:00,
2013-04-08 11:09:00,43.8,41.6,29.76,ENE,60,0.0,0.0,92,0.00,,,0.60,VWS V14.01,2013-04-08 16:09:00,
2013-04-08 11:15:00,43.8,41.3,29.76,ENE,60,0.0,0.0,91,0.00,,,0.60,VWS V14.01,2013-04-08 16:15:00,
2013-04-08 11:20:00,43.7,41.2,29.76,ENE,58,0.0,0.0,91,0.00,,,0.60,VWS V14.01,2013-04-08 16:20:00,
2013-04-08 11:25:00,43.7,41.2,29.76,ENE,58,0.0,0.0,91,0.00,,,0.60,VWS V14.01,2013-04-08 16:25:00,
2013-04-08 11:30:00,43.7,41.5,29.77,ENE,58,0.0,3.0,92,0.00,,,0.60,VWS V14.01,2013-04-08 16:30:00,
2013-04-08 11:35:00,43.8,41.6,29.77,ENE,58,0.0,0.0,92,0.00,,,0.60,VWS V14.01,2013-04-08 16:35:00,
2013-04-08 11:40:00,43.8,41.6,29.76,ENE,58,0.0,3.0,92,0.00,,,0.60,VWS V14.01,2013-04-08 16:40:00,
2013-04-08 11:45:00,43.6,41.2,29.77,ENE,58,0.0,3.0,91,0.00,,,0.60,VWS V14.01,2013-04-08 16:45:00,
2013-04-08 11:50:00,43.6,41.2,29.77,NE,42,0.0,3.0,91,0.00,,,0.60,VWS V14.01,2013-04-08 16:50:00,
2013-04-08 11:55:00,43.6,41.2,29.78,NE,42,0.0,3.0,91,0.00,,,0.60,VWS V14.01,2013-04-08 16:55:00,
2013-04-08 12:00:00,43.7,41.2,29.78,NE,41,0.0,3.0,91,0.00,,,0.60,VWS V14.01,2013-04-08 17:00:00,
2013-04-08 12:05:00,43.7,41.0,29.78,NE,41,0.0,0.0,90,0.00,,,0.60,VWS V14.01,2013-04-08 17:05:00,
2013-04-08 12:10:00,43.7,41.2,29.78,NE,41,0.0,0.0,91,0.00,,,0.60,VWS V14.01,2013-04-08 17:10:00,
2013-04-08 12:15:00,43.7,41.0,29.78,NE,42,0.0,3.0,90,0.00,,,0.60,VWS V14.01,2013-04-08 17:15:00,
2013-04-08 12:20:00,43.7,41.0,29.78,East,96,2.0,3.0,90,0.00,,,0.60,VWS V14.01,2013-04-08 17:20:00,
2013-04-08 12:25:00,43.9,41.5,29.79,East,96,0.0,5.0,91,0.00,,,0.60,VWS V14.01,2013-04-08 17:25:00,
2013-04-08 12:31:00,44.0,41.3,29.79,East,97,0.0,5.0,90,0.00,,,0.60,VWS V14.01,2013-04-08 17:31:00,
2013-04-08 12:36:00,44.1,41.4,29.79,East,96,0.0,0.0,90,0.00,,,0.60,VWS V14.01,2013-04-08 17:36:00,
2013-04-08 12:41:00,44.1,41.4,29.80,East,96,0.0,0.0,90,0.00,,,0.60,VWS V14.01,2013-04-08 17:41:00,
2013-04-08 12:46:00,44.2,41.5,29.80,East,97,0.0,0.0,90,0.00,,,0.60,VWS V14.01,2013-04-08 17:46:00,
2013-04-08 12:51:00,44.2,41.5,29.80,East,96,0.0,0.0,90,0.00,,,0.60,VWS V14.01,2013-04-08 17:51:00,
2013-04-08 12:56:00,44.3,41.6,29.80,East,96,0.0,2.0,90,0.00,,,0.60,VWS V14.01,2013-04-08 17:56:00,
2013-04-08 13:02:00,44.3,41.6,29.80,East,96,0.0,0.0,90,0.00,,,0.60,VWS V14.01,2013-04-08 18:02:00,
2013-04-08 13:07:00,44.5,41.8,29.80,East,96,0.0,0.0,90,0.00,,,0.60,VWS V14.01,2013-04-08 18:07:00,
2013-04-08 13:12:00,44.6,41.6,29.80,East,89,0.0,2.0,89,0.00,,,0.60,VWS V14.01,2013-04-08 18:12:00,
2013-04-08 13:17:00,44.8,41.5,29.81,East,96,0.0,2.0,88,0.00,,,0.60,VWS V14.01,2013-04-08 18:17:00,
2013-04-08 13:22:00,44.8,41.8,29.81,East,96,0.0,2.0,89,0.00,,,0.60,VWS V14.01,2013-04-08 18:22:00,
2013-04-08 13:27:00,45.0,42.0,29.81,NNE,21,1.0,2.0,89,0.00,,,0.60,VWS V14.01,2013-04-08 18:27:00,
2013-04-08 13:32:00,45.0,41.7,29.82,North,354,1.0,2.0,88,0.00,,,0.60,VWS V14.01,2013-04-08 18:32:00,
2013-04-08 13:37:00,44.9,41.3,29.82,NW,323,0.0,4.0,87,0.00,,,0.60,VWS V14.01,2013-04-08 18:37:00,
2013-04-08 13:42:00,44.8,41.5,29.81,NW,323,0.0,4.0,88,0.00,,,0.60,VWS V14.01,2013-04-08 18:42:00,
2013-04-08 13:47:00,44.8,41.5,29.81,NW,319,0.0,4.0,88,0.00,,,0.60,VWS V14.01,2013-04-08 18:47:00,
2013-04-08 13:52:00,44.8,41.5,29.82,NW,320,0.0,4.0,88,0.00,,,0.60,VWS V14.01,2013-04-08 18:52:00,
2013-04-08 13:57:00,44.9,41.3,29.81,NW,319,0.0,4.0,87,0.00,,,0.60,VWS V14.01,2013-04-08 18:57:00,
2013-04-08 14:02:00,45.0,41.7,29.81,NW,319,1.0,3.0,88,0.00,,,0.60,VWS V14.01,2013-04-08 19:02:00,
2013-04-08 14:07:00,45.2,41.6,29.82,NW,319,0.0,3.0,87,0.00,,,0.60,VWS V14.01,2013-04-08 19:07:00,
2013-04-08 14:13:00,45.5,41.9,29.82,NW,320,0.0,3.0,87,0.00,,,0.60,VWS V14.01,2013-04-08 19:13:00,
2013-04-08 14:18:00,45.6,41.7,29.82,NW,305,4.0,5.0,86,0.00,,,0.60,VWS V14.01,2013-04-08 19:18:00,
2013-04-08 14:23:00,45.6,41.4,29.82,WNW,295,3.0,5.0,85,0.00,,,0.60,VWS V14.01,2013-04-08 19:23:00,
2013-04-08 14:28:00,45.6,41.4,29.82,NE,54,0.0,5.0,85,0.00,,,0.60,VWS V14.01,2013-04-08 19:28:00,
2013-04-08 14:33:00,45.5,41.6,29.82,WNW,286,2.0,4.0,86,0.00,,,0.60,VWS V14.01,2013-04-08 19:33:00,
2013-04-08 14:38:00,45.7,41.8,29.82,North,354,0.0,4.0,86,0.00,,,0.60,VWS V14.01,2013-04-08 19:38:00,
2013-04-08 14:43:00,45.6,41.4,29.82,WNW,302,0.0,4.0,85,0.00,,,0.60,VWS V14.01,2013-04-08 19:43:00,
2013-04-08 14:48:00,45.6,41.7,29.82,North,359,0.0,4.0,86,0.00,,,0.60,VWS V14.01,2013-04-08 19:48:00,
2013-04-08 14:53:00,45.6,41.7,29.82,North,10,0.0,4.0,86,0.00,,,0.60,VWS V14.01,2013-04-08 19:53:00,
2013-04-08 14:58:00,45.5,41.6,29.82,North,11,0.0,4.0,86,0.00,,,0.60,VWS V14.01,2013-04-08 19:58:00,
2013-04-08 15:03:00,45.4,41.5,29.82,North,10,0.0,0.0,86,0.00,,,0.60,VWS V14.01,2013-04-08 20:03:00,
2013-04-08 15:09:00,45.4,41.2,29.82,West,268,0.0,5.0,85,0.00,,,0.60,VWS V14.01,2013-04-08 20:09:00,
2013-04-08 15:14:00,45.2,41.0,29.82,West,272,0.0,5.0,85,0.00,,,0.60,VWS V14.01,2013-04-08 20:14:00,
2013-04-08 15:19:00,45.2,41.3,29.82,NNE,12,0.0,5.0,86,0.00,,,0.60,VWS V14.01,2013-04-08 20:19:00,
2013-04-08 15:24:00,45.2,41.3,29.81,ENE,67,0.0,5.0,86,0.00,,,0.60,VWS V14.01,2013-04-08 20:24:00,
2013-04-08 15:30:00,45.3,41.4,29.81,ENE,67,0.0,5.0,86,0.00,,,0.60,VWS V14.01,2013-04-08 20:30:00,
2013-04-08 15:35:00,45.4,41.5,29.81,ENE,67,0.0,1.0,86,0.00,,,0.60,VWS V14.01,2013-04-08 20:35:00,
2013-04-08 15:40:00,45.5,41.6,29.81,ENE,64,2.0,5.0,86,0.00,,,0.60,VWS V14.01,2013-04-08 20:40:00,
2013-04-08 15:45:00,45.5,41.3,29.81,ENE,63,3.0,5.0,85,0.00,,,0.60,VWS V14.01,2013-04-08 20:45:00,
2013-04-08 15:50:00,45.5,41.3,29.81,NE,51,0.0,5.0,85,0.00,,,0.60,VWS V14.01,2013-04-08 20:50:00,
2013-04-08 15:55:00,45.8,41.9,29.82,North,359,0.0,5.0,86,0.00,,,0.60,VWS V14.01,2013-04-08 20:55:00,
2013-04-08 16:00:00,46.1,41.8,29.82,North,4,0.0,5.0,85,0.00,,,0.60,VWS V14.01,2013-04-08 21:00:00,
2013-04-08 16:05:00,46.3,41.7,29.82,NW,311,0.0,3.0,84,0.00,,,0.60,VWS V14.01,2013-04-08 21:05:00,
2013-04-08 16:10:00,46.4,41.2,29.83,NNW,339,0.0,3.0,82,0.00,,,0.60,VWS V14.01,2013-04-08 21:10:00,
2013-04-08 16:15:00,46.4,41.5,29.83,NNE,12,2.0,3.0,83,0.00,,,0.60,VWS V14.01,2013-04-08 21:15:00,
2013-04-08 16:21:00,46.6,42.0,29.83,NNE,23,3.0,4.0,84,0.00,,,0.60,VWS V14.01,2013-04-08 21:21:00,
2013-04-08 16:26:00,46.5,41.3,29.83,NNE,23,0.0,4.0,82,0.00,,,0.60,VWS V14.01,2013-04-08 21:26:00,
2013-04-08 16:31:00,46.6,41.7,29.84,NW,324,0.0,4.0,83,0.00,,,0.60,VWS V14.01,2013-04-08 21:31:00,
2013-04-08 16:36:00,46.4,41.2,29.84,North,359,0.0,3.0,82,0.00,,,0.60,VWS V14.01,2013-04-08 21:36:00,
2013-04-08 16:42:00,46.4,41.2,29.85,NNW,339,0.0,3.0,82,0.00,,,0.60,VWS V14.01,2013-04-08 21:42:00,
2013-04-08 16:47:00,46.3,41.1,29.85,North,354,0.0,3.0,82,0.00,,,0.60,VWS V14.01,2013-04-08 21:47:00,
2013-04-08 16:52:00,45.9,41.0,29.85,ENE,78,0.0,4.0,83,0.00,,,0.60,VWS V14.01,2013-04-08 21:52:00,
2013-04-08 16:57:00,45.7,41.2,29.85,North,9,1.0,5.0,84,0.00,,,0.60,VWS V14.01,2013-04-08 21:57:00,
2013-04-08 17:02:00,45.4,40.9,29.86,North,359,0.0,0.0,84,0.00,,,0.60,VWS V14.01,2013-04-08 22:02:00,
2013-04-08 17:07:00,45.5,41.0,29.87,NW,322,3.0,4.0,84,0.00,,,0.60,VWS V14.01,2013-04-08 22:07:00,
2013-04-08 17:12:00,45.5,41.0,29.88,NW,305,0.0,4.0,84,0.00,,,0.60,VWS V14.01,2013-04-08 22:12:00,
2013-04-08 17:17:00,45.5,41.0,29.88,NW,305,0.0,4.0,84,0.00,,,0.60,VWS V14.01,2013-04-08 22:17:00,
2013-04-08 17:22:00,45.5,41.0,29.88,NW,305,0.0,4.0,84,0.00,,,0.60,VWS V14.01,2013-04-08 22:22:00,
2013-04-08 17:27:00,45.6,41.0,29.89,NW,305,0.0,4.0,84,0.00,,,0.60,VWS V14.01,2013-04-08 22:27:00,
2013-04-08 17:33:00,45.6,40.7,29.89,North,354,0.0,0.0,83,0.00,,,0.60,VWS V14.01,2013-04-08 22:33:00,
2013-04-08 17:38:00,45.5,41.0,29.89,NNE,15,0.0,3.0,84,0.00,,,0.60,VWS V14.01,2013-04-08 22:38:00,
2013-04-08 17:43:00,45.3,40.8,29.88,NNE,14,0.0,3.0,84,0.00,,,0.60,VWS V14.01,2013-04-08 22:43:00,
2013-04-08 17:48:00,45.1,40.6,29.89,NNE,12,0.0,3.0,84,0.00,,,0.60,VWS V14.01,2013-04-08 22:48:00,
2013-04-08 17:53:00,45.1,40.6,29.88,East,92,3.0,3.0,84,0.00,,,0.60,VWS V14.01,2013-04-08 22:53:00,
2013-04-08 17:58:00,45.0,40.8,29.88,NE,39,0.0,3.0,85,0.00,,,0.60,VWS V14.01,2013-04-08 22:58:00,
2013-04-08 18:03:00,44.9,40.7,29.88,ENE,72,0.0,4.0,85,0.00,,,0.60,VWS V14.01,2013-04-08 23:03:00,
2013-04-08 18:08:00,44.7,40.5,29.89,East,83,0.0,5.0,85,0.00,,,0.60,VWS V14.01,2013-04-08 23:08:00,
2013-04-08 18:13:00,44.7,40.5,29.90,NNW,339,0.0,5.0,85,0.00,,,0.60,VWS V14.01,2013-04-08 23:13:00,
2013-04-08 18:18:00,44.7,40.5,29.91,NNW,328,0.0,8.0,85,0.00,,,0.60,VWS V14.01,2013-04-08 23:18:00,
2013-04-08 18:23:00,44.6,40.4,29.91,NNW,327,0.0,8.0,85,0.00,,,0.60,VWS V14.01,2013-04-08 23:23:00,
2013-04-08 18:29:00,44.5,40.3,29.92,North,359,4.0,8.0,85,0.00,,,0.60,VWS V14.01,2013-04-08 23:29:00,
2013-04-08 18:34:00,44.3,40.1,29.92,NNW,327,0.0,2.0,85,0.00,,,0.60,VWS V14.01,2013-04-08 23:34:00,
2013-04-08 18:39:00,44.2,40.0,29.93,NNW,332,0.0,2.0,85,0.00,,,0.60,VWS V14.01,2013-04-08 23:39:00,
2013-04-08 18:44:00,44.0,40.1,29.93,WNW,283,0.0,4.0,86,0.00,,,0.60,VWS V14.01,2013-04-08 23:44:00,
2013-04-08 18:50:00,43.8,39.9,29.93,NW,310,0.0,4.0,86,0.00,,,0.60,VWS V14.01,2013-04-08 23:50:00,
2013-04-08 18:55:00,43.6,39.7,29.93,NNE,33,0.0,4.0,86,0.00,,,0.60,VWS V14.01,2013-04-08 23:55:00,
2013-04-08 19:00:00,43.3,39.4,29.94,North,10,0.0,4.0,86,0.00,,,0.60,VWS V14.01,2013-04-09 00:00:00,
2013-04-08 19:05:00,43.2,39.3,29.94,North,10,0.0,0.0,86,0.00,,,0.60,VWS V14.01,2013-04-09 00:05:00,
2013-04-08 19:10:00,43.1,39.2,29.95,NE,39,0.0,6.0,86,0.00,,,0.60,VWS V14.01,2013-04-09 00:10:00,
2013-04-08 19:15:00,42.9,39.3,29.95,NNE,31,0.0,6.0,87,0.00,,,0.60,VWS V14.01,2013-04-09 00:15:00,
2013-04-08 19:20:00,42.8,39.2,29.95,WNW,285,0.0,6.0,87,0.00,,,0.60,VWS V14.01,2013-04-09 00:20:00,
2013-04-08 19:25:00,42.8,39.2,29.96,NNE,18,3.0,6.0,87,0.00,,,0.60,VWS V14.01,2013-04-09 00:25:00,
2013-04-08 19:30:00,42.7,39.1,29.96,NNW,330,0.0,6.0,87,0.00,,,0.60,VWS V14.01,2013-04-09 00:30:00,
2013-04-08 19:35:00,42.6,39.0,29.96,ENE,57,0.0,4.0,87,0.00,,,0.60,VWS V14.01,2013-04-09 00:35:00,
2013-04-08 19:40:00,42.5,38.9,29.97,ENE,57,0.0,4.0,87,0.00,,,0.60,VWS V14.01,2013-04-09 00:40:00,
2013-04-08 19:45:00,42.4,38.8,29.97,NNE,12,0.0,4.0,87,0.00,,,0.60,VWS V14.01,2013-04-09 00:45:00,
2013-04-08 19:50:00,42.2,38.6,29.98,NNE,12,0.0,4.0,87,0.00,,,0.60,VWS V14.01,2013-04-09 00:50:00,
2013-04-08 19:55:00,42.1,38.5,29.98,North,11,0.0,4.0,87,0.00,,,0.60,VWS V14.01,2013-04-09 00:55:00,
2013-04-08 20:00:00,42.1,38.5,29.98,NNW,329,3.0,5.0,87,0.00,,,0.60,VWS V14.01,2013-04-09 01:00:00,
2013-04-08 20:06:00,42.0,38.4,29.98,NNE,16,0.0,3.0,87,0.00,,,0.60,VWS V14.01,2013-04-09 01:06:00,
2013-04-08 20:11:00,41.8,38.2,29.98,NE,43,0.0,8.0,87,0.00,,,0.60,VWS V14.01,2013-04-09 01:11:00,
2013-04-08 20:16:00,41.7,38.1,29.98,NE,47,3.0,8.0,87,0.00,,,0.60,VWS V14.01,2013-04-09 01:16:00,
2013-04-08 20:21:00,41.4,38.1,29.98,NW,310,0.0,8.0,88,0.00,,,0.60,VWS V14.01,2013-04-09 01:21:00,
2013-04-08 20:26:00,41.3,38.0,29.98,NNW,344,0.0,8.0,88,0.00,,,0.60,VWS V14.01,2013-04-09 01:26:00,
2013-04-08 20:31:00,41.2,37.9,29.98,NNE,22,0.0,8.0,88,0.00,,,0.60,VWS V14.01,2013-04-09 01:31:00,
2013-04-08 20:36:00,41.1,38.1,29.99,North,10,0.0,3.0,89,0.00,,,0.60,VWS V14.01,2013-04-09 01:36:00,
2013-04-08 20:42:00,41.0,38.0,29.98,NNE,29,0.0,3.0,89,0.00,,,0.60,VWS V14.01,2013-04-09 01:42:00,
2013-04-08 20:47:00,40.9,38.2,29.98,ENE,75,0.0,6.0,90,0.00,,,0.60,VWS V14.01,2013-04-09 01:47:00,
2013-04-08 20:52:00,40.8,38.1,29.98,ENE,75,1.0,6.0,90,0.00,,,0.60,VWS V14.01,2013-04-09 01:52:00,
2013-04-08 20:57:00,40.6,37.9,29.99,NE,51,0.0,7.0,90,0.00,,,0.60,VWS V14.01,2013-04-09 01:57:00,
2013-04-08 21:02:00,40.6,38.2,29.98,NE,48,3.0,4.0,91,0.00,,,0.60,VWS V14.01,2013-04-09 02:02:00,
2013-04-08 21:07:00,40.4,37.7,29.98,NE,44,0.0,5.0,90,0.00,,,0.60,VWS V14.01,2013-04-09 02:07:00,
2013-04-08 21:12:00,40.4,37.7,29.98,ENE,62,2.0,5.0,90,0.00,,,0.60,VWS V14.01,2013-04-09 02:12:00,
2013-04-08 21:17:00,40.3,37.6,29.98,ENE,75,3.0,6.0,90,0.00,,,0.60,VWS V14.01,2013-04-09 02:17:00,
2013-04-08 21:22:00,40.3,37.6,29.98,ENE,70,0.0,6.0,90,0.00,,,0.60,VWS V14.01,2013-04-09 02:22:00,
2013-04-08 21:27:00,40.3,37.6,29.99,ENE,58,0.0,6.0,90,0.00,,,0.60,VWS V14.01,2013-04-09 02:27:00,
2013-04-08 21:32:00,40.4,37.4,30.00,NNE,19,0.0,0.0,89,0.00,,,0.60,VWS V14.01,2013-04-09 02:32:00,
2013-04-08 21:38:00,40.4,37.4,30.00,NE,35,2.0,4.0,89,0.00,,,0.60,VWS V14.01,2013-04-09 02:38:00,
2013-04-08 21:43:00,40.4,37.4,30.01,NE,35,0.0,4.0,89,0.00,,,0.60,VWS V14.01,2013-04-09 02:43:00,
2013-04-08 21:48:00,40.3,37.3,30.01,ENE,68,2.0,7.0,89,0.00,,,0.60,VWS V14.01,2013-04-09 02:48:00,
2013-04-08 21:53:00,40.3,37.0,30.01,NE,47,3.0,7.0,88,0.00,,,0.60,VWS V14.01,2013-04-09 02:53:00,
2013-04-08 21:58:00,40.2,36.9,30.01,NE,47,0.0,7.0,88,0.00,,,0.60,VWS V14.01,2013-04-09 02:58:00,
2013-04-08 22:03:00,40.2,37.2,30.01,NE,46,0.0,0.0,89,0.00,,,0.60,VWS V14.01,2013-04-09 03:03:00,
2013-04-08 22:08:00,40.2,36.9,30.01,NE,48,0.0,4.0,88,0.00,,,0.60,VWS V14.01,2013-04-09 03:08:00,
2013-04-08 22:13:00,40.2,36.9,30.01,NE,48,0.0,4.0,88,0.00,,,0.60,VWS V14.01,2013-04-09 03:13:00,
2013-04-08 22:18:00,40.2,36.9,30.01,NE,52,2.0,4.0,88,0.00,,,0.60,VWS V14.01,2013-04-09 03:18:00,
2013-04-08 22:23:00,40.1,36.8,30.02,NE,56,3.0,5.0,88,0.00,,,0.60,VWS V14.01,2013-04-09 03:23:00,
2013-04-08 22:28:00,40.1,36.8,30.02,NE,50,1.0,5.0,88,0.00,,,0.60,VWS V14.01,2013-04-09 03:28:00,
2013-04-08 22:33:00,40.1,36.5,30.03,NE,50,0.0,0.0,87,0.00,,,0.60,VWS V14.01,2013-04-09 03:33:00,
2013-04-08 22:38:00,40.2,36.7,30.03,NE,50,0.0,2.0,87,0.00,,,0.60,VWS V14.01,2013-04-09 03:38:00,
2013-04-08 22:43:00,40.2,36.7,30.03,NE,50,0.0,2.0,87,0.00,,,0.60,VWS V14.01,2013-04-09 03:43:00,
2013-04-08 22:48:00,40.3,36.8,30.04,NE,50,0.0,2.0,87,0.00,,,0.60,VWS V14.01,2013-04-09 03:48:00,
2013-04-08 22:53:00,40.3,36.8,30.04,ENE,63,0.0,2.0,87,0.00,,,0.60,VWS V14.01,2013-04-09 03:53:00,
2013-04-08 22:59:00,40.3,36.8,30.04,ENE,63,0.0,2.0,87,0.00,,,0.60,VWS V14.01,2013-04-09 03:59:00,
2013-04-08 23:00:00,40.3,36.8,30.04,ENE,63,0.0,2.0,87,0.00,,,0.60,VWS V14.01,2013-04-09 04:00:00,
2013-04-08 23:01:00,40.3,36.8,30.04,ENE,63,0.0,2.0,87,0.00,,,0.60,VWS V14.01,2013-04-09 04:01:00,
2013-04-08 23:06:00,40.4,36.5,30.05,ENE,60,0.0,1.0,86,0.00,,,0.60,VWS V14.01,2013-04-09 04:06:00,
2013-04-08 23:11:00,40.4,36.5,30.04,ENE,64,4.0,4.0,86,0.00,,,0.60,VWS V14.01,2013-04-09 04:11:00,
2013-04-08 23:17:00,40.2,36.3,30.03,NE,50,0.0,4.0,86,0.00,,,0.60,VWS V14.01,2013-04-09 04:17:00,
2013-04-08 23:22:00,40.2,36.3,30.04,NNE,19,0.0,6.0,86,0.00,,,0.60,VWS V14.01,2013-04-09 04:22:00,
2013-04-08 23:27:00,40.2,36.3,30.04,NE,54,0.0,6.0,86,0.00,,,0.60,VWS V14.01,2013-04-09 04:27:00,
2013-04-08 23:32:00,40.2,36.3,30.04,ENE,76,2.0,4.0,86,0.00,,,0.60,VWS V14.01,2013-04-09 04:32:00,
2013-04-08 23:37:00,40.1,36.3,30.04,NNE,21,4.0,5.0,86,0.00,,,0.60,VWS V14.01,2013-04-09 04:37:00,
2013-04-08 23:42:00,40.0,36.2,30.04,ESE,108,2.0,5.0,86,0.00,,,0.60,VWS V14.01,2013-04-09 04:42:00,
2013-04-08 23:47:00,39.9,36.1,30.03,ENE,57,0.0,5.0,86,0.00,,,0.60,VWS V14.01,2013-04-09 04:47:00,
2013-04-08 23:52:00,39.8,36.0,30.03,NNE,17,3.0,5.0,86,0.00,,,0.60,VWS V14.01,2013-04-09 04:52:00,
2013-04-08 23:57:00,39.8,36.0,30.03,ENE,65,2.0,8.0,86,0.00,,,0.60,VWS V14.01,2013-04-09 04:57:00,